This is the latest recevied weather packets stored in our database for station/object KC3JUG-13. If no packets are shown the sender has not sent any weather packets the latest 10 day(s).
| Time | Temp. | Humidity | Pressure | Rain* | Wind** | Luminosity | Snow |
|---|---|---|---|---|---|---|---|
| 1777876181 | 11.67° C | 47% | 1016.8 hPa | 0 mm | - | - | - |
| 1777875401 | 11.67° C | 47% | 1016.8 hPa | 0 mm | - | - | - |
| 1777874621 | 11.67° C | 47% | 1016.7 hPa | 0 mm | - | - | - |
| 1777873841 | 11.67° C | 47% | 1016.8 hPa | 0 mm | - | - | - |
| 1777873061 | 11.67° C | 46% | 1016.8 hPa | 0 mm | - | - | - |
| 1777872317 | 11.67° C | 46% | 1016.8 hPa | 0 mm | - | - | - |
| 1777872281 | 11.67° C | 46% | 1016.8 hPa | 0 mm | - | - | - |
| 1777871501 | 12.22° C | 46% | 1016.9 hPa | 0 mm | - | - | - |
| 1777870721 | 11.67° C | 46% | 1017 hPa | 0 mm | - | - | - |
| 1777869941 | 11.67° C | 46% | 1017 hPa | 0 mm | - | - | - |
| 1777869161 | 11.67° C | 46% | 1016.8 hPa | 0 mm | - | - | - |
| 1777868381 | 11.67° C | 46% | 1016.7 hPa | 0 mm | - | - | - |
| 1777867601 | 11.67° C | 47% | 1016.5 hPa | 0 mm | - | - | - |
| 1777866821 | 11.67° C | 47% | 1016.7 hPa | 0 mm | - | - | - |
| 1777866041 | 11.67° C | 47% | 1016.6 hPa | 0 mm | - | - | - |
| 1777865261 | 11.67° C | 47% | 1016.4 hPa | 0 mm | - | - | - |
| 1777864481 | 11.67° C | 47% | 1016.4 hPa | 0 mm | - | - | - |
| 1777863701 | 11.67° C | 47% | 1016.3 hPa | 0 mm | - | - | - |
| 1777862922 | 11.67° C | 47% | 1016.4 hPa | 0 mm | - | - | - |
| 1777862141 | 11.67° C | 47% | 1016.4 hPa | 0 mm | - | - | - |
| 1777861361 | 11.67° C | 47% | 1016.5 hPa | 0 mm | - | - | - |
| 1777860582 | 11.67° C | 48% | 1016.5 hPa | 0 mm | - | - | - |
| 1777859802 | 10.56° C | 51% | 1016.6 hPa | 0 mm | - | - | - |
| 1777859022 | 10° C | 56% | 1016.4 hPa | 0 mm | - | - | - |
| 1777858242 | 10.56° C | 53% | 1016.2 hPa | 0 mm | - | - | - |
* Rain latest hour (hover to see other rain measurements)
** Current wind speed in m/s (hover to see current wind gust speed)